sensor_id;sensor_type;location;lat;lon;timestamp;pressure;altitude;pressure_sealevel;temperature;humidity
38038;BME280;23843;51.320;12.340;2023-02-12T05:31:47;102394.75;;;7.19;100.00
38038;BME280;23843;51.320;12.340;2023-02-12T05:34:13;102399.16;;;7.17;100.00
38038;BME280;23843;51.320;12.340;2023-02-12T05:36:39;102394.78;;;7.14;100.00
38038;BME280;23843;51.320;12.340;2023-02-12T05:39:05;102397.44;;;7.11;100.00
38038;BME280;23843;51.320;12.340;2023-02-12T05:41:30;102399.19;;;7.15;100.00
38038;BME280;23843;51.320;12.340;2023-02-12T05:43:56;102398.28;;;7.18;100.00
38038;BME280;23843;51.320;12.340;2023-02-12T05:46:21;102391.28;;;7.15;100.00
38038;BME280;23843;51.320;12.340;2023-02-12T05:48:50;102400.06;;;7.14;100.00
38038;BME280;23843;51.320;12.340;2023-02-12T05:51:18;102400.06;;;7.17;100.00
38038;BME280;23843;51.320;12.340;2023-02-12T05:53:43;102398.31;;;7.15;100.00
38038;BME280;23843;51.320;12.340;2023-02-12T05:56:11;102408.81;;;7.19;100.00
38038;BME280;23843;51.320;12.340;2023-02-12T05:58:37;102400.06;;;7.17;100.00
38038;BME280;23843;51.320;12.340;2023-02-12T06:01:07;102407.06;;;7.17;100.00
38038;BME280;23843;51.320;12.340;2023-02-12T06:03:34;102412.34;;;7.17;100.00
38038;BME280;23843;51.320;12.340;2023-02-12T06:06:01;102412.34;;;7.18;100.00
38038;BME280;23843;51.320;12.340;2023-02-12T06:08:27;102409.69;;;7.23;100.00
38038;BME280;23843;51.320;12.340;2023-02-12T06:10:53;102411.41;;;7.25;100.00
38038;BME280;23843;51.320;12.340;2023-02-12T06:13:19;102420.19;;;7.27;100.00
38038;BME280;23843;51.320;12.340;2023-02-12T06:15:45;102417.53;;;7.29;100.00
38038;BME280;23843;51.320;12.340;2023-02-12T06:18:12;102421.94;;;7.32;100.00
38038;BME280;23843;51.320;12.340;2023-02-12T06:20:38;102417.53;;;7.32;100.00
38038;BME280;23843;51.320;12.340;2023-02-12T06:23:05;102426.31;;;7.33;100.00
38038;BME280;23843;51.320;12.340;2023-02-12T06:25:31;102428.94;;;7.33;100.00
38038;BME280;23843;51.320;12.340;2023-02-12T06:27:58;102435.09;;;7.35;100.00
38038;BME280;23843;51.320;12.340;2023-02-12T06:30:24;102435.09;;;7.35;100.00
38038;BME280;23843;51.320;12.340;2023-02-12T06:32:50;102443.88;;;7.37;100.00
38038;BME280;23843;51.320;12.340;2023-02-12T06:35:16;102443.84;;;7.38;100.00
38038;BME280;23843;51.320;12.340;2023-02-12T06:37:42;102444.69;;;7.39;100.00
38038;BME280;23843;51.320;12.340;2023-02-12T06:40:09;102444.69;;;7.40;100.00
38038;BME280;23843;51.320;12.340;2023-02-12T06:42:35;102449.09;;;7.41;100.00
38038;BME280;23843;51.320;12.340;2023-02-12T06:45:02;102451.72;;;7.43;100.00
38038;BME280;23843;51.320;12.340;2023-02-12T06:47:37;102450.81;;;7.45;100.00
38038;BME280;23843;51.320;12.340;2023-02-12T06:50:02;102451.69;;;7.46;100.00
38038;BME280;23843;51.320;12.340;2023-02-12T06:52:28;102456.94;;;7.47;100.00
38038;BME280;23843;51.320;12.340;2023-02-12T06:54:54;102463.09;;;7.48;100.00
38038;BME280;23843;51.320;12.340;2023-02-12T06:57:21;102465.72;;;7.48;100.00
38038;BME280;23843;51.320;12.340;2023-02-12T06:59:46;102463.09;;;7.49;100.00
38038;BME280;23843;51.320;12.340;2023-02-12T07:02:12;102463.97;;;7.52;100.00
38038;BME280;23843;51.320;12.340;2023-02-12T07:04:42;102464.84;;;7.50;100.00
38038;BME280;23843;51.320;12.340;2023-02-12T07:07:08;102466.56;;;7.53;100.00
38038;BME280;23843;51.320;12.340;2023-02-12T07:09:34;102473.59;;;7.56;100.00
38038;BME280;23843;51.320;12.340;2023-02-12T07:12:00;102465.66;;;7.57;100.00
38038;BME280;23843;51.320;12.340;2023-02-12T07:14:26;102477.97;;;7.58;100.00
38038;BME280;23843;51.320;12.340;2023-02-12T07:16:52;102481.50;;;7.59;100.00
38038;BME280;23843;51.320;12.340;2023-02-12T07:19:18;102477.09;;;7.59;100.00
38038;BME280;23843;51.320;12.340;2023-02-12T07:21:44;102482.34;;;7.62;100.00
38038;BME280;23843;51.320;12.340;2023-02-12T07:24:12;102485.84;;;7.66;100.00
38038;BME280;23843;51.320;12.340;2023-02-12T07:26:39;102493.75;;;7.64;100.00
38038;BME280;23843;51.320;12.340;2023-02-12T07:29:04;102495.50;;;7.68;100.00
38038;BME280;23843;51.320;12.340;2023-02-12T07:31:31;102492.81;;;7.70;100.00
38038;BME280;23843;51.320;12.340;2023-02-12T07:33:58;102493.69;;;7.70;100.00
38038;BME280;23843;51.320;12.340;2023-02-12T07:36:25;102497.25;;;7.66;100.00
38038;BME280;23843;51.320;12.340;2023-02-12T07:38:53;102499.91;;;7.66;100.00
38038;BME280;23843;51.320;12.340;2023-02-12T07:41:20;102502.53;;;7.66;100.00
38038;BME280;23843;51.320;12.340;2023-02-12T07:43:47;102506.03;;;7.68;100.00
38038;BME280;23843;51.320;12.340;2023-02-12T07:46:15;102513.09;;;7.66;100.00
38038;BME280;23843;51.320;12.340;2023-02-12T07:48:45;102515.72;;;7.65;100.00
38038;BME280;23843;51.320;12.340;2023-02-12T07:51:13;102521.88;;;7.65;100.00
38038;BME280;23843;51.320;12.340;2023-02-12T07:53:39;102521.88;;;7.68;100.00
38038;BME280;23843;51.320;12.340;2023-02-12T07:56:09;102522.72;;;7.72;100.00
38038;BME280;23843;51.320;12.340;2023-02-12T07:58:36;102527.13;;;7.71;100.00
38038;BME280;23843;51.320;12.340;2023-02-12T08:01:16;102522.72;;;7.74;100.00
38038;BME280;23843;51.320;12.340;2023-02-12T08:03:42;102531.50;;;7.76;100.00
38038;BME280;23843;51.320;12.340;2023-02-12T08:06:11;102534.13;;;7.76;100.00
38038;BME280;23843;51.320;12.340;2023-02-12T08:08:37;102533.22;;;7.77;100.00
38038;BME280;23843;51.320;12.340;2023-02-12T08:11:04;102537.59;;;7.78;100.00
38038;BME280;23843;51.320;12.340;2023-02-12T08:13:30;102534.09;;;7.79;100.00
38038;BME280;23843;51.320;12.340;2023-02-12T08:15:59;102532.34;;;7.78;100.00
38038;BME280;23843;51.320;12.340;2023-02-12T08:18:24;102529.69;;;7.79;100.00
38038;BME280;23843;51.320;12.340;2023-02-12T08:20:50;102532.31;;;7.84;100.00
38038;BME280;23843;51.320;12.340;2023-02-12T08:23:17;102528.75;;;7.85;100.00
38038;BME280;23843;51.320;12.340;2023-02-12T08:25:42;102536.69;;;7.88;100.00
38038;BME280;23843;51.320;12.340;2023-02-12T08:28:08;102536.59;;;7.94;100.00
38038;BME280;23843;51.320;12.340;2023-02-12T08:30:33;102534.84;;;7.98;100.00
38038;BME280;23843;51.320;12.340;2023-02-12T08:32:59;102540.97;;;7.98;100.00
38038;BME280;23843;51.320;12.340;2023-02-12T08:35:24;102540.09;;;8.02;100.00
38038;BME280;23843;51.320;12.340;2023-02-12T08:37:54;102549.75;;;8.05;100.00
38038;BME280;23843;51.320;12.340;2023-02-12T08:40:25;102554.94;;;8.11;100.00
38038;BME280;23843;51.320;12.340;2023-02-12T08:42:51;102550.53;;;8.13;100.00
38038;BME280;23843;51.320;12.340;2023-02-12T08:45:17;102556.66;;;8.17;100.00
38038;BME280;23843;51.320;12.340;2023-02-12T08:47:46;102544.34;;;8.17;100.00
38038;BME280;23843;51.320;12.340;2023-02-12T08:50:12;102549.59;;;8.20;100.00
38038;BME280;23843;51.320;12.340;2023-02-12T08:52:38;102546.03;;;8.21;100.00
38038;BME280;23843;51.320;12.340;2023-02-12T08:55:04;102546.91;;;8.25;100.00
38038;BME280;23843;51.320;12.340;2023-02-12T08:57:31;102558.31;;;8.30;100.00
38038;BME280;23843;51.320;12.340;2023-02-12T08:59:57;102555.59;;;8.36;100.00
38038;BME280;23843;51.320;12.340;2023-02-12T09:02:23;102559.97;;;8.43;100.00
38038;BME280;23843;51.320;12.340;2023-02-12T09:04:49;102563.41;;;8.50;100.00
38038;BME280;23843;51.320;12.340;2023-02-12T09:07:15;102555.44;;;8.54;100.00
38038;BME280;23843;51.320;12.340;2023-02-12T09:09:41;102553.59;;;8.63;100.00
38038;BME280;23843;51.320;12.340;2023-02-12T09:12:06;102561.41;;;8.73;100.00
38038;BME280;23843;51.320;12.340;2023-02-12T09:14:33;102566.63;;;8.81;100.00
38038;BME280;23843;51.320;12.340;2023-02-12T09:16:59;102570.91;;;8.90;100.00
38038;BME280;23843;51.320;12.340;2023-02-12T09:19:24;102568.16;;;9.00;100.00
38038;BME280;23843;51.320;12.340;2023-02-12T09:21:51;102568.97;;;9.06;100.00
38038;BME280;23843;51.320;12.340;2023-02-12T09:24:18;102570.59;;;9.17;100.00
38038;BME280;23843;51.320;12.340;2023-02-12T09:26:44;102571.34;;;9.24;100.00
38038;BME280;23843;51.320;12.340;2023-02-12T09:29:10;102574.81;;;9.32;100.00
38038;BME280;23843;51.320;12.340;2023-02-12T09:31:38;102575.59;;;9.37;100.00
38038;BME280;23843;51.320;12.340;2023-02-12T09:34:05;102579.06;;;9.41;100.00
38038;BME280;23843;51.320;12.340;2023-02-12T09:36:31;102580.91;;;9.39;100.00
38038;BME280;23843;51.320;12.340;2023-02-12T09:38:57;102595.88;;;9.38;100.00
38038;BME280;23843;51.320;12.340;2023-02-12T09:41:46;102593.38;;;9.28;100.00
38038;BME280;23843;51.320;12.340;2023-02-12T09:44:20;102591.69;;;9.20;100.00
38038;BME280;23843;51.320;12.340;2023-02-12T09:46:53;102592.56;;;9.21;100.00
38038;BME280;23843;51.320;12.340;2023-02-12T09:49:36;102593.53;;;9.15;100.00
38038;BME280;23843;51.320;12.340;2023-02-12T09:52:12;102599.63;;;9.22;100.00
38038;BME280;23843;51.320;12.340;2023-02-12T09:54:39;102603.09;;;9.24;100.00
38038;BME280;23843;51.320;12.340;2023-02-12T09:57:14;102602.19;;;9.28;100.00
38038;BME280;23843;51.320;12.340;2023-02-12T09:59:44;102606.59;;;9.26;100.00
38038;BME280;23843;51.320;12.340;2023-02-12T10:02:13;102605.84;;;9.18;100.00
38038;BME280;23843;51.320;12.340;2023-02-12T10:04:40;102604.09;;;9.14;100.00
38038;BME280;23843;51.320;12.340;2023-02-12T10:07:18;102610.31;;;9.13;100.00
38038;BME280;23843;51.320;12.340;2023-02-12T10:10:02;102614.72;;;9.11;100.00
38038;BME280;23843;51.320;12.340;2023-02-12T10:12:37;102611.19;;;9.12;100.00
38038;BME280;23843;51.320;12.340;2023-02-12T10:15:17;102612.09;;;9.11;100.00
38038;BME280;23843;51.320;12.340;2023-02-12T10:17:56;102601.59;;;9.05;100.00
38038;BME280;23843;51.320;12.340;2023-02-12T10:20:38;102604.19;;;9.08;100.00
38038;BME280;23843;51.320;12.340;2023-02-12T10:23:22;102602.44;;;9.07;100.00
38038;BME280;23843;51.320;12.340;2023-02-12T10:25:53;102613.00;;;9.10;100.00
38038;BME280;23843;51.320;12.340;2023-02-12T10:28:24;102609.41;;;9.14;100.00
38038;BME280;23843;51.320;12.340;2023-02-12T10:30:53;102609.41;;;9.14;100.00
38038;BME280;23843;51.320;12.340;2023-02-12T10:33:26;102606.81;;;9.11;100.00
38038;BME280;23843;51.320;12.340;2023-02-12T10:35:57;102610.34;;;9.10;100.00
38038;BME280;23843;51.320;12.340;2023-02-12T10:38:28;102602.31;;;9.17;100.00
38038;BME280;23843;51.320;12.340;2023-02-12T10:40:54;102604.06;;;9.20;100.00
38038;BME280;23843;51.320;12.340;2023-02-12T10:43:20;102603.94;;;9.28;100.00
38038;BME280;23843;51.320;12.340;2023-02-12T10:45:46;102601.25;;;9.31;100.00
38038;BME280;23843;51.320;12.340;2023-02-12T10:48:14;102605.56;;;9.38;100.00
38038;BME280;23843;51.320;12.340;2023-02-12T10:50:50;102602.97;;;9.35;100.00
38038;BME280;23843;51.320;12.340;2023-02-12T10:53:23;102608.25;;;9.36;100.00
38038;BME280;23843;51.320;12.340;2023-02-12T10:55:49;102596.72;;;9.42;100.00
38038;BME280;23843;51.320;12.340;2023-02-12T10:58:28;102599.25;;;9.50;100.00
38038;BME280;23843;51.320;12.340;2023-02-12T11:00:56;102593.84;;;9.56;100.00
38038;BME280;23843;51.320;12.340;2023-02-12T11:03:29;102599.94;;;9.62;100.00
38038;BME280;23843;51.320;12.340;2023-02-12T11:06:11;102591.06;;;9.68;100.00
38038;BME280;23843;51.320;12.340;2023-02-12T11:08:36;102593.59;;;9.74;100.00
38038;BME280;23843;51.320;12.340;2023-02-12T11:11:05;102591.75;;;9.79;100.00
38038;BME280;23843;51.320;12.340;2023-02-12T11:13:32;102593.41;;;9.86;100.00
38038;BME280;23843;51.320;12.340;2023-02-12T11:15:57;102587.19;;;9.89;100.00
38038;BME280;23843;51.320;12.340;2023-02-12T11:18:25;102590.66;;;9.94;100.00
38038;BME280;23843;51.320;12.340;2023-02-12T11:20:54;102583.69;;;9.87;100.00
38038;BME280;23843;51.320;12.340;2023-02-12T11:23:27;102588.19;;;9.83;100.00
38038;BME280;23843;51.320;12.340;2023-02-12T11:25:57;102589.16;;;9.76;100.00
38038;BME280;23843;51.320;12.340;2023-02-12T11:28:23;102584.00;;;9.69;100.00
38038;BME280;23843;51.320;12.340;2023-02-12T11:30:51;102580.56;;;9.60;100.00
38038;BME280;23843;51.320;12.340;2023-02-12T11:33:24;102582.44;;;9.54;100.00
38038;BME280;23843;51.320;12.340;2023-02-12T11:35:52;102585.16;;;9.48;100.00
38038;BME280;23843;51.320;12.340;2023-02-12T11:38:38;102584.34;;;9.42;100.00
38038;BME280;23843;51.320;12.340;2023-02-12T11:41:22;102590.56;;;9.38;100.00
38038;BME280;23843;51.320;12.340;2023-02-12T11:43:49;102592.38;;;9.36;100.00
38038;BME280;23843;51.320;12.340;2023-02-12T11:46:18;102586.19;;;9.37;100.00
38038;BME280;23843;51.320;12.340;2023-02-12T11:48:45;102587.97;;;9.37;100.00
38038;BME280;23843;51.320;12.340;2023-02-12T11:51:19;102587.13;;;9.33;100.00
38038;BME280;23843;51.320;12.340;2023-02-12T11:53:49;102578.31;;;9.34;100.00
38038;BME280;23843;51.320;12.340;2023-02-12T11:56:15;102576.59;;;9.30;100.00
38038;BME280;23843;51.320;12.340;2023-02-12T11:58:41;102580.13;;;9.29;100.00
38038;BME280;23843;51.320;12.340;2023-02-12T12:01:13;102575.69;;;9.31;100.00
38038;BME280;23843;51.320;12.340;2023-02-12T12:03:47;102576.66;;;9.24;100.00
38038;BME280;23843;51.320;12.340;2023-02-12T12:06:21;102569.63;;;9.23;100.00
38038;BME280;23843;51.320;12.340;2023-02-12T12:08:53;102578.31;;;9.31;100.00
38038;BME280;23843;51.320;12.340;2023-02-12T12:11:25;102580.91;;;9.39;100.00
38038;BME280;23843;51.320;12.340;2023-02-12T12:13:58;102582.63;;;9.38;100.00
38038;BME280;23843;51.320;12.340;2023-02-12T12:16:29;102582.69;;;9.37;100.00
38038;BME280;23843;51.320;12.340;2023-02-12T12:19:00;102581.81;;;9.35;100.00
38038;BME280;23843;51.320;12.340;2023-02-12T12:21:35;102575.66;;;9.33;100.00
38038;BME280;23843;51.320;12.340;2023-02-12T12:24:09;102575.66;;;9.33;100.00
38038;BME280;23843;51.320;12.340;2023-02-12T12:26:39;102580.97;;;9.31;100.00
38038;BME280;23843;51.320;12.340;2023-02-12T12:29:15;102580.03;;;9.34;100.00
38038;BME280;23843;51.320;12.340;2023-02-12T12:31:45;102577.44;;;9.31;100.00
38038;BME280;23843;51.320;12.340;2023-02-12T12:34:14;102581.94;;;9.27;100.00
38038;BME280;23843;51.320;12.340;2023-02-12T12:36:55;102579.28;;;9.26;100.00
38038;BME280;23843;51.320;12.340;2023-02-12T12:39:34;102573.06;;;9.28;100.00
38038;BME280;23843;51.320;12.340;2023-02-12T12:45:01;102571.31;;;9.29;100.00
38038;BME280;23843;51.320;12.340;2023-02-12T12:47:36;102564.28;;;9.26;100.00
38038;BME280;23843;51.320;12.340;2023-02-12T12:50:26;102569.63;;;9.23;100.00
38038;BME280;23843;51.320;12.340;2023-02-12T12:53:03;102567.88;;;9.22;100.00
38038;BME280;23843;51.320;12.340;2023-02-12T12:55:47;102563.44;;;9.24;100.00
38038;BME280;23843;51.320;12.340;2023-02-12T12:58:23;102567.03;;;9.20;100.00
38038;BME280;23843;51.320;12.340;2023-02-12T13:01:05;102559.03;;;9.23;100.00
38038;BME280;23843;51.320;12.340;2023-02-12T13:06:59;102559.03;;;9.23;100.00
38038;BME280;23843;51.320;12.340;2023-02-12T13:09:47;102561.69;;;9.23;100.00
38038;BME280;23843;51.320;12.340;2023-02-12T13:12:52;102562.63;;;9.19;100.00
38038;BME280;23843;51.320;12.340;2023-02-12T13:15:29;102552.03;;;9.20;100.00
38038;BME280;23843;51.320;12.340;2023-02-12T13:18:03;102554.72;;;9.16;100.00
38038;BME280;23843;51.320;12.340;2023-02-12T13:20:39;102558.19;;;9.21;100.00
38038;BME280;23843;51.320;12.340;2023-02-12T13:23:12;102556.28;;;9.31;100.00
38038;BME280;23843;51.320;12.340;2023-02-12T13:25:45;102548.41;;;9.29;100.00
38038;BME280;23843;51.320;12.340;2023-02-12T13:28:18;102548.34;;;9.32;100.00
38038;BME280;23843;51.320;12.340;2023-02-12T13:30:49;102554.50;;;9.34;100.00
38038;BME280;23843;51.320;12.340;2023-02-12T13:33:19;102554.44;;;9.36;100.00
38038;BME280;23843;51.320;12.340;2023-02-12T13:35:49;102551.81;;;9.37;100.00
38038;BME280;23843;51.320;12.340;2023-02-12T13:38:20;102554.44;;;9.37;100.00
38038;BME280;23843;51.320;12.340;2023-02-12T13:40:48;102550.88;;;9.38;100.00
38038;BME280;23843;51.320;12.340;2023-02-12T13:43:31;102552.66;;;9.39;100.00
38038;BME280;23843;51.320;12.340;2023-02-12T13:46:04;102549.97;;;9.42;100.00
38038;BME280;23843;51.320;12.340;2023-02-12T13:48:49;102546.41;;;9.43;100.00
38038;BME280;23843;51.320;12.340;2023-02-12T13:51:27;102542.84;;;9.48;100.00
38038;BME280;23843;51.320;12.340;2023-02-12T13:54:04;102543.75;;;9.47;100.00
38038;BME280;23843;51.320;12.340;2023-02-12T13:56:40;102541.97;;;9.47;100.00
38038;BME280;23843;51.320;12.340;2023-02-12T13:59:39;102546.38;;;9.47;100.00
38038;BME280;23843;51.320;12.340;2023-02-12T14:02:25;102541.09;;;9.47;100.00
38038;BME280;23843;51.320;12.340;2023-02-12T14:04:54;102545.44;;;9.51;100.00
38038;BME280;23843;51.320;12.340;2023-02-12T14:07:22;102535.66;;;9.56;100.00
38038;BME280;23843;51.320;12.340;2023-02-12T14:12:31;102539.88;;;9.69;100.00
38038;BME280;23843;51.320;12.340;2023-02-12T14:15:05;102539.81;;;9.74;100.00
38038;BME280;23843;51.320;12.340;2023-02-12T14:20:24;102546.88;;;9.73;100.00
38038;BME280;23843;51.320;12.340;2023-02-12T14:23:19;102535.38;;;9.74;100.00
38038;BME280;23843;51.320;12.340;2023-02-12T14:25:58;102537.09;;;9.77;100.00
38038;BME280;23843;51.320;12.340;2023-02-12T14:28:32;102536.28;;;9.72;100.00
38038;BME280;23843;51.320;12.340;2023-02-12T14:37:17;102535.38;;;9.73;100.00
38038;BME280;23843;51.320;12.340;2023-02-12T14:39:43;102540.66;;;9.74;100.00
38038;BME280;23843;51.320;12.340;2023-02-12T14:42:51;102535.38;;;9.73;100.00
38038;BME280;23843;51.320;12.340;2023-02-12T14:45:30;102535.44;;;9.71;100.00
38038;BME280;23843;51.320;12.340;2023-02-12T14:47:57;102532.84;;;9.67;100.00
38038;BME280;23843;51.320;12.340;2023-02-12T14:50:47;102539.94;;;9.63;100.00
38038;BME280;23843;51.320;12.340;2023-02-12T14:53:26;102532.88;;;9.65;100.00
38038;BME280;23843;51.320;12.340;2023-02-12T14:55:54;102533.91;;;9.55;100.00
38038;BME280;23843;51.320;12.340;2023-02-12T14:58:22;102528.63;;;9.55;100.00
38038;BME280;23843;51.320;12.340;2023-02-12T15:00:51;102532.16;;;9.54;100.00
38038;BME280;23843;51.320;12.340;2023-02-12T15:03:22;102536.56;;;9.53;100.00
38038;BME280;23843;51.320;12.340;2023-02-12T15:06:00;102537.47;;;9.54;100.00
38038;BME280;23843;51.320;12.340;2023-02-12T15:08:32;102551.63;;;9.51;100.00
38038;BME280;23843;51.320;12.340;2023-02-12T15:11:07;102545.41;;;9.54;100.00
38038;BME280;23843;51.320;12.340;2023-02-12T15:13:47;102541.03;;;9.50;100.00
38038;BME280;23843;51.320;12.340;2023-02-12T15:16:18;102544.59;;;9.49;100.00
38038;BME280;23843;51.320;12.340;2023-02-12T15:18:51;102549.88;;;9.49;100.00
38038;BME280;23843;51.320;12.340;2023-02-12T15:21:21;102548.06;;;9.51;100.00
38038;BME280;23843;51.320;12.340;2023-02-12T15:24:00;102552.50;;;9.50;100.00
38038;BME280;23843;51.320;12.340;2023-02-12T15:26:28;102548.16;;;9.45;100.00
38038;BME280;23843;51.320;12.340;2023-02-12T15:28:55;102551.75;;;9.40;100.00
38038;BME280;23843;51.320;12.340;2023-02-12T15:31:25;102546.50;;;9.37;100.00
38038;BME280;23843;51.320;12.340;2023-02-12T15:33:52;102553.59;;;9.35;100.00
38038;BME280;23843;51.320;12.340;2023-02-12T15:36:20;102553.63;;;9.32;100.00
38038;BME280;23843;51.320;12.340;2023-02-12T15:38:51;102548.28;;;9.35;100.00
38038;BME280;23843;51.320;12.340;2023-02-12T15:41:28;102557.16;;;9.31;100.00
38038;BME280;23843;51.320;12.340;2023-02-12T15:43:54;102561.59;;;9.31;100.00
38038;BME280;23843;51.320;12.340;2023-02-12T15:46:20;102557.16;;;9.31;100.00
38038;BME280;23843;51.320;12.340;2023-02-12T15:48:47;102564.28;;;9.28;100.00
38038;BME280;23843;51.320;12.340;2023-02-12T15:51:16;102564.28;;;9.28;100.00
38038;BME280;23843;51.320;12.340;2023-02-12T15:53:44;102559.91;;;9.25;100.00
38038;BME280;23843;51.320;12.340;2023-02-12T15:56:15;102560.81;;;9.21;100.00
38038;BME280;23843;51.320;12.340;2023-02-12T15:58:46;102562.59;;;9.20;100.00
38038;BME280;23843;51.320;12.340;2023-02-12T16:01:15;102561.75;;;9.20;100.00
38038;BME280;23843;51.320;12.340;2023-02-12T16:03:41;102559.16;;;9.14;100.00
38038;BME280;23843;51.320;12.340;2023-02-12T16:06:09;102558.28;;;9.12;100.00
38038;BME280;23843;51.320;12.340;2023-02-12T16:08:35;102560.94;;;9.15;100.00
38038;BME280;23843;51.320;12.340;2023-02-12T16:11:03;102560.03;;;9.14;100.00
38038;BME280;23843;51.320;12.340;2023-02-12T16:13:33;102567.19;;;9.06;100.00
38038;BME280;23843;51.320;12.340;2023-02-12T16:16:04;102565.47;;;9.05;100.00
38038;BME280;23843;51.320;12.340;2023-02-12T16:18:30;102566.38;;;9.03;100.00
38038;BME280;23843;51.320;12.340;2023-02-12T16:21:04;102567.19;;;9.06;100.00
38038;BME280;23843;51.320;12.340;2023-02-12T16:23:31;102566.34;;;9.04;100.00
38038;BME280;23843;51.320;12.340;2023-02-12T16:25:58;102570.75;;;9.02;100.00
38038;BME280;23843;51.320;12.340;2023-02-12T16:28:27;102565.50;;;9.00;100.00
38038;BME280;23843;51.320;12.340;2023-02-12T16:31:07;102572.59;;;8.97;100.00
38038;BME280;23843;51.320;12.340;2023-02-12T16:33:33;102572.63;;;8.95;100.00
38038;BME280;23843;51.320;12.340;2023-02-12T16:36:00;102575.22;;;8.98;100.00
38038;BME280;23843;51.320;12.340;2023-02-12T16:38:41;102580.50;;;8.98;100.00
38038;BME280;23843;51.320;12.340;2023-02-12T16:41:20;102579.69;;;8.92;100.00
38038;BME280;23843;51.320;12.340;2023-02-12T16:43:49;102584.13;;;8.91;100.00
38038;BME280;23843;51.320;12.340;2023-02-12T16:46:17;102588.53;;;8.89;100.00
38038;BME280;23843;51.320;12.340;2023-02-12T16:48:46;102584.16;;;8.88;100.00
38038;BME280;23843;51.320;12.340;2023-02-12T16:51:21;102593.81;;;8.91;100.00
38038;BME280;23843;51.320;12.340;2023-02-12T16:53:48;102588.53;;;8.91;100.00
38038;BME280;23843;51.320;12.340;2023-02-12T16:56:16;102593.88;;;8.86;100.00
38038;BME280;23843;51.320;12.340;2023-02-12T16:58:44;102591.19;;;8.89;100.00
38038;BME280;23843;51.320;12.340;2023-02-12T17:01:17;102589.44;;;8.88;100.00
38038;BME280;23843;51.320;12.340;2023-02-12T17:03:45;102594.72;;;8.88;100.00
38038;BME280;23843;51.320;12.340;2023-02-12T17:06:11;102587.66;;;8.87;100.00
38038;BME280;23843;51.320;12.340;2023-02-12T17:08:38;102593.00;;;8.84;100.00
38038;BME280;23843;51.320;12.340;2023-02-12T17:11:06;102592.13;;;8.82;100.00
38038;BME280;23843;51.320;12.340;2023-02-12T17:13:31;102595.66;;;8.84;100.00
38038;BME280;23843;51.320;12.340;2023-02-12T17:15:58;102593.03;;;8.81;100.00
38038;BME280;23843;51.320;12.340;2023-02-12T17:18:25;102595.66;;;8.83;100.00
38038;BME280;23843;51.320;12.340;2023-02-12T17:20:56;102597.38;;;8.87;100.00
38038;BME280;23843;51.320;12.340;2023-02-12T17:23:23;102601.78;;;8.86;100.00
38038;BME280;23843;51.320;12.340;2023-02-12T17:25:57;102599.19;;;8.80;100.00
38038;BME280;23843;51.320;12.340;2023-02-12T17:28:23;102596.59;;;8.77;100.00
38038;BME280;23843;51.320;12.340;2023-02-12T17:30:49;102602.78;;;8.76;100.00
38038;BME280;23843;51.320;12.340;2023-02-12T17:33:15;102601.03;;;8.76;100.00
38038;BME280;23843;51.320;12.340;2023-02-12T17:35:42;102600.97;;;8.79;100.00
38038;BME280;23843;51.320;12.340;2023-02-12T17:38:07;102607.13;;;8.80;100.00
38038;BME280;23843;51.320;12.340;2023-02-12T17:40:34;102606.31;;;8.75;100.00
38038;BME280;23843;51.320;12.340;2023-02-12T17:43:00;102608.09;;;8.74;100.00
38038;BME280;23843;51.320;12.340;2023-02-12T17:45:29;102612.50;;;8.74;100.00
38038;BME280;23843;51.320;12.340;2023-02-12T17:47:55;102608.09;;;8.74;100.00
38038;BME280;23843;51.320;12.340;2023-02-12T17:50:22;102608.09;;;8.73;100.00
38038;BME280;23843;51.320;12.340;2023-02-12T17:52:53;102615.16;;;8.72;100.00
38038;BME280;23843;51.320;12.340;2023-02-12T17:55:19;102606.34;;;8.70;100.00
38038;BME280;23843;51.320;12.340;2023-02-12T17:57:45;102610.78;;;8.70;100.00
38038;BME280;23843;51.320;12.340;2023-02-12T18:00:12;102610.78;;;8.70;100.00
38038;BME280;23843;51.320;12.340;2023-02-12T18:02:39;102609.91;;;8.69;100.00
38038;BME280;23843;51.320;12.340;2023-02-12T18:05:06;102607.25;;;8.69;100.00
38038;BME280;23843;51.320;12.340;2023-02-12T18:07:31;102609.06;;;8.66;100.00
38038;BME280;23843;51.320;12.340;2023-02-12T18:09:59;102602.03;;;8.65;100.00
38038;BME280;23843;51.320;12.340;2023-02-12T18:12:24;102601.09;;;8.69;100.00
38038;BME280;23843;51.320;12.340;2023-02-12T18:14:55;102606.38;;;8.69;100.00
38038;BME280;23843;51.320;12.340;2023-02-12T18:17:21;102599.38;;;8.66;100.00
38038;BME280;23843;51.320;12.340;2023-02-12T18:19:47;102605.56;;;8.64;100.00
38038;BME280;23843;51.320;12.340;2023-02-12T18:22:13;102595.88;;;8.64;100.00
38038;BME280;23843;51.320;12.340;2023-02-12T18:24:44;102602.97;;;8.59;100.00
38038;BME280;23843;51.320;12.340;2023-02-12T18:27:12;102596.81;;;8.55;100.00
38038;BME280;23843;51.320;12.340;2023-02-12T18:29:38;102602.09;;;8.55;100.00
38038;BME280;23843;51.320;12.340;2023-02-12T18:32:04;102595.13;;;8.51;100.00
38038;BME280;23843;51.320;12.340;2023-02-12T18:34:30;102596.94;;;8.43;100.00
38038;BME280;23843;51.320;12.340;2023-02-12T18:36:56;102609.28;;;8.44;100.00
38038;BME280;23843;51.320;12.340;2023-02-12T18:39:22;102611.88;;;8.46;100.00
38038;BME280;23843;51.320;12.340;2023-02-12T18:41:47;102604.81;;;8.48;100.00
38038;BME280;23843;51.320;12.340;2023-02-12T18:44:14;102604.84;;;8.45;100.00